Time;durP1;ratioP1;P1;durP2;ratioP2;P2;SDS_P1;SDS_P2;PMS_P1;PMS_P2;Temp;Humidity;BMP_temperature;BMP_pressure;BME280_temperature;BME280_humidity;BME280_pressure;Samples;Min_cycle;Max_cycle;Signal;HPM_P1;HPM_P2
2023/10/17 00:02:50;;;;;;;;;;;;;;;6.43;100;102213.2;;;;-74
2023/10/17 00:03:28;;;;;;;5.9;1.6;;;;;;;;;;;;;-74
2023/10/17 00:07:48;;;;;;;;;;;;;;;6.44;100;102213.1;;;;-74
2023/10/17 00:12:51;;;;;;;;;;;;;;;6.48;100;102210.9;;;;-73
2023/10/17 00:17:50;;;;;;;;;;;;;;;6.54;100;102208.3;;;;-73
2023/10/17 00:22:51;;;;;;;;;;;;;;;6.6;100;102208.4;;;;-74
2023/10/17 00:27:47;;;;;;;;;;;;;;;6.65;100;102204;;;;-74
2023/10/17 00:32:47;;;;;;;;;;;;;;;6.69;100;102197.8;;;;-74
2023/10/17 00:33:28;;;;;;;6;1.8;;;;;;;;;;;;;-78
2023/10/17 00:37:54;;;;;;;;;;;;;;;6.76;100;102184.8;;;;-75
2023/10/17 00:42:47;;;;;;;;;;;;;;;6.97;100;102179.7;;;;-75
2023/10/17 00:47:48;;;;;;;;;;;;;;;7.27;100;102172.4;;;;-75
2023/10/17 00:52:49;;;;;;;;;;;;;;;7.39;100;102166.9;;;;-75
2023/10/17 00:57:50;;;;;;;;;;;;;;;7.5;100;102166.8;;;;-74
2023/10/17 01:03:01;;;;;;;;;;;;;;;7.52;100;102162.5;;;;-75
2023/10/17 01:03:31;;;;;;;7.4;1.8;;;;;;;;;;;;;-75
2023/10/17 01:07:47;;;;;;;;;;;;;;;7.59;100;102162;;;;-80
2023/10/17 01:12:52;;;;;;;;;;;;;;;7.65;100;102161.7;;;;-79
2023/10/17 01:17:47;;;;;;;;;;;;;;;7.65;100;102155.3;;;;-79
2023/10/17 01:22:49;;;;;;;;;;;;;;;7.69;100;102154.6;;;;-78
2023/10/17 01:27:49;;;;;;;;;;;;;;;7.76;100;102143.7;;;;-77
2023/10/17 01:32:47;;;;;;;;;;;;;;;7.85;100;102146.4;;;;-77
2023/10/17 01:33:29;;;;;;;8.1;1.7;;;;;;;;;;;;;-80
2023/10/17 01:37:47;;;;;;;;;;;;;;;7.91;100;102149.4;;;;-78
2023/10/17 01:42:47;;;;;;;;;;;;;;;7.95;100;102147;;;;-79
2023/10/17 01:47:49;;;;;;;;;;;;;;;7.94;100;102147.3;;;;-79
2023/10/17 01:52:52;;;;;;;;;;;;;;;7.92;100;102146.4;;;;-77
2023/10/17 01:57:48;;;;;;;;;;;;;;;7.89;100;102151.9;;;;-77
2023/10/17 02:02:47;;;;;;;;;;;;;;;7.84;100;102147.1;;;;-76
2023/10/17 02:03:30;;;;;;;5.8;1.7;;;;;;;;;;;;;-79
2023/10/17 02:07:47;;;;;;;;;;;;;;;7.78;100;102146.1;;;;-77
2023/10/17 02:12:47;;;;;;;;;;;;;;;7.68;100;102150.8;;;;-75
2023/10/17 02:17:47;;;;;;;;;;;;;;;7.6;100;102146.4;;;;-77
2023/10/17 02:22:49;;;;;;;;;;;;;;;7.52;100;102136.3;;;;-74
2023/10/17 02:27:47;;;;;;;;;;;;;;;7.43;100;102138;;;;-74
2023/10/17 02:32:53;;;;;;;;;;;;;;;7.35;100;102139.3;;;;-75
2023/10/17 02:33:31;;;;;;;6.8;1.8;;;;;;;;;;;;;-75
2023/10/17 02:37:48;;;;;;;;;;;;;;;7.28;100;102134.6;;;;-73
2023/10/17 02:42:50;;;;;;;;;;;;;;;7.27;100;102135.9;;;;-74
2023/10/17 02:47:48;;;;;;;;;;;;;;;7.25;100;102128.6;;;;-73
2023/10/17 02:52:51;;;;;;;;;;;;;;;7.18;100;102126.3;;;;-75
2023/10/17 02:57:47;;;;;;;;;;;;;;;7.07;100;102119.4;;;;-74
2023/10/17 03:02:48;;;;;;;;;;;;;;;7.01;100;102126.7;;;;-75
2023/10/17 03:03:35;;;;;;;6.5;1.7;;;;;;;;;;;;;-75
2023/10/17 03:07:49;;;;;;;;;;;;;;;6.91;100;102137.2;;;;-74
2023/10/17 03:12:53;;;;;;;;;;;;;;;6.84;100;102137.3;;;;-75
2023/10/17 03:17:53;;;;;;;;;;;;;;;6.76;100;102132.7;;;;-75
2023/10/17 03:22:50;;;;;;;;;;;;;;;6.71;100;102132.4;;;;-73
2023/10/17 03:27:55;;;;;;;;;;;;;;;6.57;100;102132;;;;-75
2023/10/17 03:33:02;;;;;;;;;;;;;;;6.53;100;102144.4;;;;-74
2023/10/17 03:33:32;;;;;;;5.1;1.5;;;;;;;;;;;;;-74
2023/10/17 03:37:47;;;;;;;;;;;;;;;6.43;100;102147.9;;;;-74
2023/10/17 03:42:53;;;;;;;;;;;;;;;6.35;100;102144.4;;;;-79
2023/10/17 03:47:49;;;;;;;;;;;;;;;6.25;100;102153.7;;;;-78
2023/10/17 03:52:47;;;;;;;;;;;;;;;6.16;100;102153;;;;-78
2023/10/17 03:57:52;;;;;;;;;;;;;;;6.14;100;102153.9;;;;-78
2023/10/17 04:02:49;;;;;;;;;;;;;;;6.2;100;102147.1;;;;-78
2023/10/17 04:03:34;;;;;;;6.4;1.6;;;;;;;;;;;;;-78
2023/10/17 04:07:51;;;;;;;;;;;;;;;6.23;100;102158.8;;;;-78
2023/10/17 04:13:06;;;;;;;;;;;;;;;6.25;100;102161.3;;;;-78
2023/10/17 04:17:48;;;;;;;;;;;;;;;6.35;100;102159.3;;;;-79
2023/10/17 04:22:47;;;;;;;;;;;;;;;6.34;100;102175.2;;;;-78
2023/10/17 04:27:51;;;;;;;;;;;;;;;6.29;100;102163.7;;;;-78
2023/10/17 04:32:49;;;;;;;;;;;;;;;6.18;100;102159;;;;-78
2023/10/17 04:33:33;;;;;;;2.9;1.4;;;;;;;;;;;;;-78
2023/10/17 04:38:09;;;;;;;;;;;;;;;6.22;100;102159;;;;-79
2023/10/17 04:43:43;;;;;;;;;;;;;;;6.25;100;102157;;;;-78
2023/10/17 04:47:47;;;;;;;;;;;;;;;6.24;100;102159.1;;;;-77
2023/10/17 06:17:42;;;;;;;;;;;;;;;6.07;100;102127.5;;;;-84
2023/10/17 06:32:48;;;;;;;;;;;;;;;6.36;100;102133.8;;;;-82
2023/10/17 06:33:42;;;;;;;12.2;3.9;;;;;;;;;;;;;-83
2023/10/17 06:37:19;;;;;;;;;;;;;;;6.48;100;102126.6;;;;-83
2023/10/17 06:42:29;;;;;;;;;;;;;;;;;;;;;
2023/10/17 06:47:23;;;;;;;;;;;;;;;6.84;100;102132.9;;;;-85
2023/10/17 06:52:24;;;;;;;;;;;;;;;7.07;100;102135;;;;-82
2023/10/17 07:02:31;;;;;;;;;;;;;;;7.39;100;102128.6;;;;-84
2023/10/17 07:07:22;;;;;;;;;;;;;;;7.59;100;102123.9;;;;-84
2023/10/17 07:12:13;;;;;;;;;;;;;;;7.71;100;102122.7;;;;-84
2023/10/17 07:37:34;;;;;;;;;;;;;;;8.5;100;102128.2;;;;-83
2023/10/17 07:47:21;;;;;;;;;;;;;;;8.79;100;102135;;;;-83
2023/10/17 08:07:30;;;;;;;;;;;;;;;9.45;97.94727;102141.2;;;;-85
2023/10/17 08:12:23;;;;;;;;;;;;;;;9.57;96.34668;102145.3;;;;-85
2023/10/17 08:26:30;;;;;;;;;;;;;;;;;;;;;
2023/10/17 08:33:57;;;;;;;7.6;3.9;;;;;;;;;;;;;-83
2023/10/17 08:34:51;;;;;;;;;;;;;;;10.05;93.75977;102147.7;;;;-82
2023/10/17 08:44:46;;;;;;;;;;;;;;;10.18;89.84277;102153.4;;;;-82
2023/10/17 08:49:54;;;;;;;;;;;;;;;10.32;89.77148;102160.8;;;;-84
2023/10/17 08:54:42;;;;;;;;;;;;;;;10.49;89.00391;102157.6;;;;-81
2023/10/17 09:00:13;;;;;;;;;;;;;;;;;;;;;
2023/10/17 09:09:54;;;;;;;;;;;;;;;10.97;82.57617;102172.5;;;;-85
2023/10/17 09:14:49;;;;;;;;;;;;;;;11.06;77.23145;102172.3;;;;-84
2023/10/17 09:24:45;;;;;;;;;;;;;;;11.16;74.81934;102165.6;;;;-85
2023/10/17 09:29:59;;;;;;;;;;;;;;;11.41;74.28223;102164.6;;;;-83
2023/10/17 09:34:02;;;;;;;2.8;1.4;;;;;;;;;;;;;-83
2023/10/17 09:34:58;;;;;;;;;;;;;;;11.6;73.50488;102159.2;;;;-85
2023/10/17 09:45:00;;;;;;;;;;;;;;;11.71;67.61426;102168.2;;;;-84
2023/10/17 09:49:50;;;;;;;;;;;;;;;11.72;68.20703;102158.7;;;;-83
2023/10/17 09:54:40;;;;;;;;;;;;;;;11.89;67.50879;102146.4;;;;-83
2023/10/17 09:59:46;;;;;;;;;;;;;;;11.97;67.03223;102148.9;;;;-84
2023/10/17 10:03:46;;;;;;;2.8;0.9;;;;;;;;;;;;;-82
2023/10/17 10:04:38;;;;;;;;;;;;;;;12.18;67.08691;102139.7;;;;-85
2023/10/17 10:09:54;;;;;;;;;;;;;;;12.32;66.54004;102120.3;;;;-84
2023/10/17 10:19:52;;;;;;;;;;;;;;;12.53;62.2832;102132.5;;;;-82
2023/10/17 10:24:39;;;;;;;;;;;;;;;12.59;61.95508;102125.8;;;;-82
2023/10/17 10:29:46;;;;;;;;;;;;;;;12.59;62.34668;102126.9;;;;-84
2023/10/17 10:33:47;;;;;;;3.2;0.7;;;;;;;;;;;;;-82
2023/10/17 10:49:43;;;;;;;;;;;;;;;13.31;57.36328;102119.3;;;;-81
2023/10/17 10:54:50;;;;;;;;;;;;;;;13.19;57.62793;102112.5;;;;-84
2023/10/17 12:55:19;;;;;;;;;;;;;;;15.3;55.02051;101951.9;;;;-75
2023/10/17 15:04:40;;;;;;;;;;;;;;;;;;;;;
2023/10/17 15:10:17;;;;;;;;;;;;;;;13.5;57.45605;101829.4;;;;-84
2023/10/17 15:47:43;;;;;;;;;;;;;;;12.88;60.52051;101821.8;;;;-85
2023/10/17 15:52:45;;;;;;;;;;;;;;;12.52;61.77832;101821.7;;;;-83
2023/10/17 15:57:32;;;;;;;;;;;;;;;12.19;63.3623;101828;;;;-82
2023/10/17 16:02:41;;;;;;;;;;;;;;;11.93;64.37305;101826.5;;;;-82
2023/10/17 16:04:16;;;;;;;5.3;1.1;;;;;;;;;;;;;-83
2023/10/17 16:07:52;;;;;;;;;;;;;;;11.74;65.89355;101817.1;;;;-82
2023/10/17 16:12:36;;;;;;;;;;;;;;;11.6;67.17578;101823.1;;;;-85
2023/10/17 16:17:38;;;;;;;;;;;;;;;11.4;68.21289;101828;;;;-83
2023/10/17 16:22:40;;;;;;;;;;;;;;;11.26;68.85742;101824.5;;;;-86
2023/10/17 16:27:38;;;;;;;;;;;;;;;11.1;69.64453;101820.5;;;;-85
2023/10/17 16:32:46;;;;;;;;;;;;;;;10.9;70.29199;101826.2;;;;-83
2023/10/17 16:34:22;;;;;;;6.9;1.9;;;;;;;;;;;;;-81
2023/10/17 16:38:02;;;;;;;;;;;;;;;10.78;70.48242;101821.5;;;;-85
2023/10/17 16:42:44;;;;;;;;;;;;;;;10.65;71.12793;101818.3;;;;-83
2023/10/17 16:47:46;;;;;;;;;;;;;;;10.52;72.00586;101814.1;;;;-82
2023/10/17 16:52:35;;;;;;;;;;;;;;;10.37;73.31055;101809;;;;-83
2023/10/17 16:57:36;;;;;;;;;;;;;;;10.26;74.38867;101810.5;;;;-83
2023/10/17 17:02:32;;;;;;;;;;;;;;;10.21;74.67871;101809.3;;;;-84
2023/10/17 17:04:13;;;;;;;4.3;1.4;;;;;;;;;;;;;-83
2023/10/17 17:07:33;;;;;;;;;;;;;;;10.13;75.19727;101808.8;;;;-83
2023/10/17 17:12:30;;;;;;;;;;;;;;;10.05;75.31641;101809.7;;;;-81
2023/10/17 17:17:29;;;;;;;;;;;;;;;9.99;75.72559;101818.3;;;;-82
2023/10/17 17:22:30;;;;;;;;;;;;;;;9.94;76.64551;101824.3;;;;-83
2023/10/17 17:27:32;;;;;;;;;;;;;;;9.85;77.65918;101819.8;;;;-84
2023/10/17 17:32:35;;;;;;;;;;;;;;;9.74;78.71191;101822.1;;;;-83
2023/10/17 17:34:10;;;;;;;5;1.3;;;;;;;;;;;;;-80
2023/10/17 17:37:30;;;;;;;;;;;;;;;9.66;79.02832;101822.3;;;;-83
2023/10/17 17:42:34;;;;;;;;;;;;;;;9.67;78.75586;101822.7;;;;-84
2023/10/17 17:47:29;;;;;;;;;;;;;;;9.57;79.10938;101821.8;;;;-81
2023/10/17 17:52:38;;;;;;;;;;;;;;;9.46;79.12402;101811.2;;;;-82
2023/10/17 17:57:43;;;;;;;;;;;;;;;9.46;79.10254;101810.1;;;;-84
2023/10/17 18:02:36;;;;;;;;;;;;;;;9.37;78.84277;101807.1;;;;-82
2023/10/17 18:04:15;;;;;;;5;1.2;;;;;;;;;;;;;-83
2023/10/17 18:07:36;;;;;;;;;;;;;;;9.29;79.12793;101803.3;;;;-84
2023/10/17 18:12:34;;;;;;;;;;;;;;;9.29;79.55664;101809.8;;;;-82
2023/10/17 18:17:35;;;;;;;;;;;;;;;9.26;79.84961;101807.4;;;;-84
2023/10/17 18:22:38;;;;;;;;;;;;;;;9.16;80.37207;101798.5;;;;-82
2023/10/17 18:27:37;;;;;;;;;;;;;;;9.12;80.73828;101802;;;;-81
2023/10/17 18:32:30;;;;;;;;;;;;;;;9.09;81.03027;101782.3;;;;-82
2023/10/17 18:34:15;;;;;;;5.1;1.4;;;;;;;;;;;;;-83
2023/10/17 18:37:37;;;;;;;;;;;;;;;9.01;81.4248;101774.1;;;;-83
2023/10/17 18:42:56;;;;;;;;;;;;;;;8.9;81.90039;101755.2;;;;-82
2023/10/17 18:47:35;;;;;;;;;;;;;;;8.99;81.99316;101773.1;;;;-81
2023/10/17 18:52:39;;;;;;;;;;;;;;;8.9;82.00879;101770.4;;;;-83
2023/10/17 18:57:44;;;;;;;;;;;;;;;8.89;82.35938;101777.4;;;;-82
2023/10/17 19:02:50;;;;;;;;;;;;;;;8.81;82.88574;101780.3;;;;-83
2023/10/17 19:04:26;;;;;;;4.2;1.6;;;;;;;;;;;;;-83
2023/10/17 19:07:38;;;;;;;;;;;;;;;8.84;82.81348;101790.1;;;;-83
2023/10/17 19:12:30;;;;;;;;;;;;;;;8.81;83.38086;101790.6;;;;-82
2023/10/17 19:17:35;;;;;;;;;;;;;;;8.75;84.5332;101796.4;;;;-81
2023/10/17 19:22:31;;;;;;;;;;;;;;;8.68;84.99414;101797.9;;;;-83
2023/10/17 19:27:31;;;;;;;;;;;;;;;8.62;86.09473;101785.6;;;;-82
2023/10/17 19:34:22;;;;;;;6.2;1.9;;;;;;;;;;;;;-81
2023/10/17 19:37:36;;;;;;;;;;;;;;;8.51;87.16113;101752;;;;-83
2023/10/17 19:42:38;;;;;;;;;;;;;;;8.43;88.05664;101739.2;;;;-81
2023/10/17 19:47:35;;;;;;;;;;;;;;;8.42;88.27246;101733.1;;;;-83
2023/10/17 19:52:29;;;;;;;;;;;;;;;8.4;89.03906;101718.1;;;;-84
2023/10/17 19:57:32;;;;;;;;;;;;;;;8.39;89.37598;101716.2;;;;-83
2023/10/17 20:02:33;;;;;;;;;;;;;;;8.28;90.2334;101707.5;;;;-82
2023/10/17 20:04:23;;;;;;;6.3;3.1;;;;;;;;;;;;;-83
2023/10/17 20:07:48;;;;;;;;;;;;;;;8.36;90.59961;101712;;;;-82
2023/10/17 20:12:55;;;;;;;;;;;;;;;8.33;90.88086;101703.2;;;;-82
2023/10/17 20:17:41;;;;;;;;;;;;;;;8.32;91.86328;101706.5;;;;-85
2023/10/17 20:22:33;;;;;;;;;;;;;;;8.22;92.46875;101708.6;;;;-82
2023/10/17 20:27:32;;;;;;;;;;;;;;;8.17;93.73926;101704;;;;-83
2023/10/17 20:32:37;;;;;;;;;;;;;;;8.17;94.45215;101699.9;;;;-83
2023/10/17 20:34:18;;;;;;;11.3;5.6;;;;;;;;;;;;;-82
2023/10/17 20:37:39;;;;;;;;;;;;;;;8.15;95.14941;101698.8;;;;-83
2023/10/17 20:42:38;;;;;;;;;;;;;;;8.15;95.55469;101695;;;;-81
2023/10/17 20:47:46;;;;;;;;;;;;;;;8.11;96.54297;101692.2;;;;-81
2023/10/17 20:52:38;;;;;;;;;;;;;;;8.08;97.04883;101695.5;;;;-82
2023/10/17 20:57:36;;;;;;;;;;;;;;;8.08;97.38867;101690.4;;;;-82
2023/10/17 21:02:33;;;;;;;;;;;;;;;8.08;97.57422;101691.7;;;;-83
2023/10/17 21:04:21;;;;;;;13.3;7.2;;;;;;;;;;;;;-83
2023/10/17 21:07:38;;;;;;;;;;;;;;;8.02;97.45117;101675.5;;;;-84
2023/10/17 21:12:39;;;;;;;;;;;;;;;7.96;97.46094;101658.8;;;;-81
2023/10/17 21:17:43;;;;;;;;;;;;;;;7.91;97.78711;101661.6;;;;-84
2023/10/17 21:22:32;;;;;;;;;;;;;;;7.91;97.13086;101654.3;;;;-81
2023/10/17 21:27:34;;;;;;;;;;;;;;;7.81;98.05176;101642.2;;;;-80
2023/10/17 21:32:40;;;;;;;;;;;;;;;7.76;98.84766;101635.1;;;;-81
2023/10/17 21:34:31;;;;;;;11.7;6.8;;;;;;;;;;;;;-81
2023/10/17 21:37:38;;;;;;;;;;;;;;;7.72;99.36426;101636.3;;;;-82
2023/10/17 21:42:33;;;;;;;;;;;;;;;7.73;99.36621;101627.3;;;;-81
2023/10/17 21:47:53;;;;;;;;;;;;;;;7.74;99.37988;101620;;;;-82
2023/10/17 22:02:30;;;;;;;;;;;;;;;7.63;100;101600.5;;;;-83
2023/10/17 22:04:23;;;;;;;15.3;8.6;;;;;;;;;;;;;-82
2023/10/17 22:07:44;;;;;;;;;;;;;;;7.58;100;101601.7;;;;-79
2023/10/17 22:12:35;;;;;;;;;;;;;;;7.5;100;101605.3;;;;-81
2023/10/17 22:17:36;;;;;;;;;;;;;;;7.5;100;101597.5;;;;-81
2023/10/17 22:22:41;;;;;;;;;;;;;;;7.48;100;101593;;;;-81
2023/10/17 22:27:42;;;;;;;;;;;;;;;7.45;100;101587;;;;-83
2023/10/17 22:32:43;;;;;;;;;;;;;;;7.4;100;101576.4;;;;-81
2023/10/17 22:34:25;;;;;;;18.3;10.4;;;;;;;;;;;;;-79
2023/10/17 22:37:30;;;;;;;;;;;;;;;7.39;100;101566.5;;;;-81
2023/10/17 22:42:49;;;;;;;;;;;;;;;7.35;100;101569.5;;;;-82
2023/10/17 22:52:48;;;;;;;;;;;;;;;7.31;100;101575;;;;-84
2023/10/17 23:02:47;;;;;;;;;;;;;;;7.28;100;101564.6;;;;-81
2023/10/17 23:41:58;;;;;;;;;;;;;;;7.01;100;101525.1;;;;-77
